aviador You're here:

KCDW Decoded Metar

CALDWELL in NJ, USA
Report Time2017-10-21 15:53:00
UTC Time2017-10-21 15:56:27
Flight Rules vfr VFR
Wind200° at 05 kt
W.Decomp.*RWY 22: 5.0 kt HW 0.6 kt LCW
RWY 28: 2.0 kt HW 4.6 kt LCW
W.Rank200° ranks 16
Current wind is above 200° avg. (4.8)
Visibility9999 m
Phenomena:N/A
Clouds:N/A
Expected CloudBase > 6,000 ft AGL from Temp-Dew spread
CeilingNone
Temp21°C (ISA +6)
Dew Point06°C (38% RH)
AAT18.3°C
QNH1027 hPa
Density Alt620 ft
Elevation210 ft
Report Wrong Elevation
Raw Report
METAR KCDW 211553Z AUTO 20005KT 10SM CLR 21/06 A3034 RMK AO2 SLP281
T02060056 TSNO=

Extra information for KCDW:More info

Metar Taf Metar & Taf Last 4 Metars F.Rules Stats Wind Profile Meteogram Temp Stats Airport Information Weather charts Add Link Nearby VenuesMetar ALERT Operation Metar Decoded Social comments

AIRNAV info for KCDW